Time;durP1;ratioP1;P1;durP2;ratioP2;P2;SDS_P1;SDS_P2;PMS_P1;PMS_P2;Temp;Humidity;BMP_temperature;BMP_pressure;BME280_temperature;BME280_humidity;BME280_pressure;Samples;Min_cycle;Max_cycle;Signal;HPM_P1;HPM_P2
2022/07/14 00:00:11;;;;;;;0.78;0.78;;;;;;;;;;1845155;75;26249;-42
2022/07/14 00:02:38;;;;;;;0.70;0.70;;;;;;;;;;1846328;76;26732;-49
2022/07/14 00:05:06;;;;;;;0.70;0.70;;;;;;;;;;1835571;75;27080;-39
2022/07/14 00:07:33;;;;;;;1.02;1.02;;;;;;;;;;1856421;76;26313;-44
2022/07/14 00:10:01;;;;;;;3.02;0.80;;;;;;;;;;1833989;75;26331;-42
2022/07/14 00:12:28;;;;;;;0.98;0.60;;;;;;;;;;1842335;76;26277;-44
2022/07/14 00:14:55;;;;;;;0.72;0.72;;;;;;;;;;1845356;76;26284;-49
2022/07/14 00:17:22;;;;;;;1.47;0.82;;;;;;;;;;1836287;75;26735;-48
2022/07/14 00:19:50;;;;;;;1.05;0.70;;;;;;;;;;1839240;76;26327;-42
2022/07/14 00:22:17;;;;;;;0.78;0.70;;;;;;;;;;1842654;77;26199;-41
2022/07/14 00:24:44;;;;;;;0.60;0.60;;;;;;;;;;1854020;76;26234;-42
2022/07/14 00:27:11;;;;;;;0.60;0.60;;;;;;;;;;1853155;76;26309;-47
2022/07/14 00:29:39;;;;;;;0.80;0.80;;;;;;;;;;1855204;76;26417;-40
2022/07/14 00:32:10;;;;;;;1.32;0.70;;;;;;;;;;1850564;77;26218;-48
2022/07/14 00:34:38;;;;;;;1.95;0.60;;;;;;;;;;1860691;76;26684;-50
2022/07/14 00:37:05;;;;;;;1.57;0.88;;;;;;;;;;1855828;76;26247;-41
2022/07/14 00:39:54;;;;;;;0.70;0.70;;;;;;;;;;1853224;76;26260;-50
2022/07/14 00:42:01;;;;;;;0.80;0.80;;;;;;;;;;1836320;76;26258;-39
2022/07/14 00:44:28;;;;;;;0.82;0.82;;;;;;;;;;1857321;76;26250;-41
2022/07/14 00:46:56;;;;;;;0.88;0.60;;;;;;;;;;1855534;75;26269;-44
2022/07/14 00:49:37;;;;;;;0.80;0.80;;;;;;;;;;1850999;75;26261;-48
2022/07/14 00:52:04;;;;;;;1.35;0.70;;;;;;;;;;1847453;76;26795;-44
2022/07/14 00:54:31;;;;;;;1.45;0.80;;;;;;;;;;1858718;75;26251;-44
2022/07/14 00:56:58;;;;;;;0.70;0.70;;;;;;;;;;1835297;76;26252;-46
2022/07/14 00:59:26;;;;;;;0.70;0.70;;;;;;;;;;1845809;75;26278;-42
2022/07/14 01:01:53;;;;;;;0.70;0.70;;;;;;;;;;1844044;76;26242;-44
2022/07/14 01:04:20;;;;;;;0.70;0.70;;;;;;;;;;1848411;76;26215;-44
2022/07/14 01:06:47;;;;;;;0.68;0.68;;;;;;;;;;1848673;76;26307;-43
2022/07/14 01:09:15;;;;;;;0.70;0.70;;;;;;;;;;1846337;75;26290;-50
2022/07/14 01:11:42;;;;;;;0.65;0.65;;;;;;;;;;1865378;75;26301;-47
2022/07/14 01:14:09;;;;;;;0.55;0.55;;;;;;;;;;1856059;75;26258;-44
2022/07/14 01:16:37;;;;;;;0.72;0.72;;;;;;;;;;1836952;76;26289;-48
2022/07/14 01:19:04;;;;;;;0.80;0.80;;;;;;;;;;1847120;76;26195;-43
2022/07/14 01:21:31;;;;;;;1.40;0.80;;;;;;;;;;1861531;76;26277;-47
2022/07/14 01:23:58;;;;;;;0.88;0.80;;;;;;;;;;1853188;76;26319;-45
2022/07/14 01:26:26;;;;;;;1.85;0.90;;;;;;;;;;1864387;75;26267;-49
2022/07/14 01:28:53;;;;;;;0.60;0.60;;;;;;;;;;1854208;75;26229;-47
2022/07/14 01:31:20;;;;;;;0.60;0.60;;;;;;;;;;1866635;75;26368;-40
2022/07/14 01:33:47;;;;;;;0.88;0.72;;;;;;;;;;1854031;76;26807;-45
2022/07/14 01:36:15;;;;;;;0.70;0.70;;;;;;;;;;1857084;75;26753;-43
2022/07/14 01:38:42;;;;;;;0.82;0.68;;;;;;;;;;1852451;75;26381;-43
2022/07/14 01:41:09;;;;;;;0.70;0.70;;;;;;;;;;1854816;75;26214;-48
2022/07/14 01:43:37;;;;;;;0.70;0.70;;;;;;;;;;1863320;75;26246;-45
2022/07/14 01:46:04;;;;;;;0.70;0.70;;;;;;;;;;1863206;75;26741;-41
2022/07/14 01:48:32;;;;;;;0.90;0.90;;;;;;;;;;1864967;76;26222;-45
2022/07/14 01:50:59;;;;;;;0.68;0.68;;;;;;;;;;1865211;74;26308;-44
2022/07/14 01:53:27;;;;;;;0.70;0.70;;;;;;;;;;1840160;76;26289;-53
2022/07/14 01:55:54;;;;;;;0.55;0.55;;;;;;;;;;1859448;76;26292;-52
2022/07/14 01:58:21;;;;;;;0.60;0.60;;;;;;;;;;1849842;76;26255;-44
2022/07/14 02:01:39;;;;;;;0.62;0.62;;;;;;;;;;1853505;76;26374;-52
2022/07/14 02:03:17;;;;;;;0.60;0.60;;;;;;;;;;1852030;75;26323;-42
2022/07/14 02:05:47;;;;;;;0.72;0.72;;;;;;;;;;1852954;76;26242;-42
2022/07/14 02:08:15;;;;;;;0.60;0.60;;;;;;;;;;1857449;75;26387;-48
2022/07/14 02:13:27;;;;;;;0.70;0.68;;;;;;;;;;1845722;76;26264;-50
2022/07/14 02:15:55;;;;;;;0.60;0.60;;;;;;;;;;1858527;76;26261;-50
2022/07/14 02:18:22;;;;;;;0.60;0.60;;;;;;;;;;1848931;76;26277;-43
2022/07/14 02:20:49;;;;;;;1.00;0.50;;;;;;;;;;1851622;75;26269;-47
2022/07/14 02:23:16;;;;;;;0.60;0.60;;;;;;;;;;1863945;76;26238;-42
2022/07/14 02:25:44;;;;;;;0.53;0.53;;;;;;;;;;1860786;76;26266;-44
2022/07/14 02:28:11;;;;;;;0.68;0.68;;;;;;;;;;1859215;75;26297;-45
2022/07/14 02:30:39;;;;;;;0.60;0.60;;;;;;;;;;1865703;76;26643;-42
2022/07/14 02:33:07;;;;;;;0.60;0.60;;;;;;;;;;1869338;75;26266;-45
2022/07/14 02:35:35;;;;;;;0.50;0.50;;;;;;;;;;1854335;75;26278;-44
2022/07/14 02:38:02;;;;;;;0.50;0.50;;;;;;;;;;1857555;75;26322;-50
2022/07/14 02:40:29;;;;;;;0.60;0.60;;;;;;;;;;1857210;76;26634;-44
2022/07/14 02:42:57;;;;;;;0.70;0.70;;;;;;;;;;1860759;76;26218;-46
2022/07/14 02:45:24;;;;;;;0.70;0.70;;;;;;;;;;1848230;75;26679;-43
2022/07/14 02:47:51;;;;;;;0.70;0.70;;;;;;;;;;1861469;76;26678;-44
2022/07/14 02:50:19;;;;;;;0.70;0.70;;;;;;;;;;1859634;76;26215;-40
2022/07/14 02:52:46;;;;;;;0.60;0.60;;;;;;;;;;1868530;75;26308;-41
2022/07/14 02:55:13;;;;;;;0.80;0.80;;;;;;;;;;1854750;75;26335;-45
2022/07/14 02:57:41;;;;;;;0.70;0.70;;;;;;;;;;1856342;75;26238;-45
2022/07/14 03:00:10;;;;;;;0.53;0.53;;;;;;;;;;1858281;75;26723;-40
2022/07/14 03:02:37;;;;;;;0.60;0.60;;;;;;;;;;1858657;75;26175;-45
2022/07/14 03:05:04;;;;;;;0.55;0.55;;;;;;;;;;1860354;75;26277;-46
2022/07/14 03:07:32;;;;;;;0.60;0.60;;;;;;;;;;1860991;75;26631;-41
2022/07/14 03:09:59;;;;;;;1.00;0.60;;;;;;;;;;1857482;75;26297;-45
2022/07/14 03:12:26;;;;;;;0.62;0.62;;;;;;;;;;1862007;75;26270;-47
2022/07/14 03:14:54;;;;;;;0.62;0.62;;;;;;;;;;1866235;76;26715;-46
2022/07/14 03:17:21;;;;;;;0.70;0.70;;;;;;;;;;1863849;75;26827;-44
2022/07/14 03:19:49;;;;;;;1.30;0.60;;;;;;;;;;1864378;75;27038;-44
2022/07/14 03:22:17;;;;;;;0.53;0.50;;;;;;;;;;1854406;76;26254;-47
2022/07/14 03:24:44;;;;;;;0.70;0.70;;;;;;;;;;1862620;76;26262;-41
2022/07/14 03:27:12;;;;;;;0.50;0.50;;;;;;;;;;1855315;76;26426;-42
2022/07/14 03:29:42;;;;;;;0.53;0.53;;;;;;;;;;1866066;75;26225;-41
2022/07/14 03:32:10;;;;;;;0.60;0.60;;;;;;;;;;1854222;76;26339;-44
2022/07/14 03:34:37;;;;;;;0.62;0.62;;;;;;;;;;1862615;75;26269;-44
2022/07/14 03:37:04;;;;;;;0.50;0.50;;;;;;;;;;1857415;75;26263;-42
2022/07/14 03:39:31;;;;;;;0.65;0.65;;;;;;;;;;1845403;75;26257;-49
2022/07/14 03:41:59;;;;;;;0.50;0.50;;;;;;;;;;1857052;76;26341;-50
2022/07/14 03:44:26;;;;;;;1.00;0.60;;;;;;;;;;1860922;75;26374;-42
2022/07/14 03:46:53;;;;;;;0.75;0.62;;;;;;;;;;1858447;76;26254;-39
2022/07/14 03:49:20;;;;;;;0.70;0.70;;;;;;;;;;1861872;76;26243;-38
2022/07/14 03:51:48;;;;;;;0.60;0.60;;;;;;;;;;1855560;76;26325;-45
2022/07/14 03:54:15;;;;;;;0.60;0.60;;;;;;;;;;1848344;76;26702;-44
2022/07/14 03:56:42;;;;;;;0.37;0.37;;;;;;;;;;1855435;75;26755;-46
2022/07/14 03:59:10;;;;;;;0.50;0.50;;;;;;;;;;1859146;76;26659;-50
2022/07/14 04:01:38;;;;;;;0.40;0.40;;;;;;;;;;1852931;76;26257;-47
2022/07/14 04:04:05;;;;;;;0.60;0.60;;;;;;;;;;1865088;76;26686;-44
2022/07/14 04:06:32;;;;;;;0.50;0.50;;;;;;;;;;1868996;76;26195;-45
2022/07/14 04:09:00;;;;;;;0.53;0.53;;;;;;;;;;1862473;75;26360;-42
2022/07/14 04:11:28;;;;;;;0.60;0.60;;;;;;;;;;1862269;75;26265;-52
2022/07/14 04:13:55;;;;;;;1.37;0.60;;;;;;;;;;1850903;76;26628;-45
2022/07/14 04:16:22;;;;;;;0.40;0.40;;;;;;;;;;1861388;75;26771;-43
2022/07/14 04:18:50;;;;;;;0.72;0.60;;;;;;;;;;1847747;76;26779;-47
2022/07/14 04:21:17;;;;;;;0.40;0.40;;;;;;;;;;1867326;76;26727;-44
2022/07/14 04:23:44;;;;;;;0.57;0.57;;;;;;;;;;1838030;76;26685;-41
2022/07/14 04:26:11;;;;;;;0.50;0.50;;;;;;;;;;1855622;76;26247;-41
2022/07/14 04:28:39;;;;;;;1.35;0.40;;;;;;;;;;1845951;75;26219;-50
2022/07/14 04:31:08;;;;;;;0.40;0.40;;;;;;;;;;1859629;76;26254;-45
2022/07/14 04:33:35;;;;;;;0.55;0.53;;;;;;;;;;1856328;75;26648;-48
2022/07/14 04:36:03;;;;;;;0.78;0.40;;;;;;;;;;1849706;76;26330;-44
2022/07/14 04:38:30;;;;;;;0.42;0.40;;;;;;;;;;1848739;75;26265;-47
2022/07/14 04:41:00;;;;;;;1.40;0.50;;;;;;;;;;1854612;76;27183;-50
2022/07/14 04:43:27;;;;;;;0.50;0.50;;;;;;;;;;1858936;75;26333;-45
2022/07/14 04:45:54;;;;;;;0.70;0.70;;;;;;;;;;1862553;75;26312;-48
2022/07/14 04:48:22;;;;;;;0.50;0.50;;;;;;;;;;1856584;75;26326;-45
2022/07/14 04:53:38;;;;;;;0.50;0.50;;;;;;;;;;1850688;76;26693;-46
2022/07/14 04:56:05;;;;;;;0.40;0.40;;;;;;;;;;1858671;75;26319;-50
2022/07/14 04:58:32;;;;;;;0.50;0.50;;;;;;;;;;1853371;75;26211;-45
2022/07/14 05:00:59;;;;;;;0.57;0.45;;;;;;;;;;1861395;76;26242;-49
2022/07/14 05:03:27;;;;;;;0.42;0.42;;;;;;;;;;1862463;75;26283;-45
2022/07/14 05:05:54;;;;;;;0.40;0.40;;;;;;;;;;1850590;75;27088;-42
2022/07/14 05:08:21;;;;;;;0.37;0.37;;;;;;;;;;1859379;76;26753;-44
2022/07/14 05:10:49;;;;;;;0.47;0.47;;;;;;;;;;1840580;75;26233;-44
2022/07/14 05:13:16;;;;;;;1.75;0.47;;;;;;;;;;1848495;76;26265;-47
2022/07/14 05:15:43;;;;;;;0.60;0.60;;;;;;;;;;1842589;75;26265;-50
2022/07/14 05:18:10;;;;;;;0.90;0.40;;;;;;;;;;1854228;75;26275;-44
2022/07/14 05:20:38;;;;;;;0.47;0.47;;;;;;;;;;1873057;75;26262;-47
2022/07/14 05:23:05;;;;;;;0.50;0.50;;;;;;;;;;1865868;75;26267;-44
2022/07/14 05:25:32;;;;;;;0.50;0.50;;;;;;;;;;1852171;75;26745;-44
2022/07/14 05:27:59;;;;;;;2.40;0.70;;;;;;;;;;1863331;75;26647;-45
2022/07/14 05:30:27;;;;;;;0.60;0.60;;;;;;;;;;1842583;75;26662;-45
2022/07/14 05:32:55;;;;;;;0.42;0.42;;;;;;;;;;1859413;75;26778;-45
2022/07/14 05:35:23;;;;;;;2.85;0.40;;;;;;;;;;1855801;77;26295;-47
2022/07/14 05:37:50;;;;;;;3.85;0.75;;;;;;;;;;1861376;75;26199;-40
2022/07/14 05:40:18;;;;;;;1.40;0.78;;;;;;;;;;1850981;75;26670;-47
2022/07/14 05:42:45;;;;;;;3.02;0.60;;;;;;;;;;1847598;75;26290;-49
2022/07/14 05:45:12;;;;;;;2.05;0.50;;;;;;;;;;1854904;75;26219;-50
2022/07/14 05:47:41;;;;;;;2.05;0.60;;;;;;;;;;1843856;76;26268;-44
2022/07/14 05:50:09;;;;;;;2.92;0.60;;;;;;;;;;1855266;75;26249;-47
2022/07/14 05:52:36;;;;;;;1.40;0.60;;;;;;;;;;1854864;76;26287;-43
2022/07/14 05:55:03;;;;;;;0.60;0.60;;;;;;;;;;1855380;75;26297;-47
2022/07/14 05:57:31;;;;;;;2.70;0.57;;;;;;;;;;1859060;76;26242;-45
2022/07/14 05:59:58;;;;;;;0.72;0.60;;;;;;;;;;1850751;76;26278;-48
2022/07/14 06:02:25;;;;;;;2.70;0.70;;;;;;;;;;1857323;75;26281;-46
2022/07/14 06:04:52;;;;;;;5.00;0.70;;;;;;;;;;1858995;75;26247;-43
2022/07/14 06:07:20;;;;;;;1.02;0.68;;;;;;;;;;1867406;75;26324;-45
2022/07/14 06:09:49;;;;;;;3.37;0.70;;;;;;;;;;1843465;76;26820;-46
2022/07/14 06:12:16;;;;;;;1.17;0.88;;;;;;;;;;1860673;75;26223;-46
2022/07/14 06:14:44;;;;;;;4.03;0.60;;;;;;;;;;1856097;76;26293;-44
2022/07/14 06:17:11;;;;;;;1.92;0.50;;;;;;;;;;1852188;75;26245;-48
2022/07/14 06:19:38;;;;;;;3.62;0.60;;;;;;;;;;1857056;76;26328;-42
2022/07/14 06:22:06;;;;;;;2.75;0.60;;;;;;;;;;1856643;75;26205;-43
2022/07/14 06:24:34;;;;;;;0.72;0.55;;;;;;;;;;1864872;75;26666;-42
2022/07/14 06:27:01;;;;;;;3.08;0.60;;;;;;;;;;1863350;75;26238;-42
2022/07/14 06:29:28;;;;;;;1.60;0.62;;;;;;;;;;1863813;76;26293;-49
2022/07/14 06:31:55;;;;;;;0.50;0.50;;;;;;;;;;1864388;76;26847;-46
2022/07/14 06:34:23;;;;;;;1.55;0.60;;;;;;;;;;1861462;76;26258;-50
2022/07/14 06:36:51;;;;;;;1.07;0.62;;;;;;;;;;1865628;76;26321;-45
2022/07/14 06:39:18;;;;;;;2.95;0.60;;;;;;;;;;1866334;75;26301;-44
2022/07/14 06:41:45;;;;;;;0.42;0.42;;;;;;;;;;1856660;75;26266;-44
2022/07/14 06:44:13;;;;;;;1.67;0.62;;;;;;;;;;1847990;75;26317;-43
2022/07/14 06:46:41;;;;;;;0.65;0.50;;;;;;;;;;1852573;76;26759;-52
2022/07/14 06:49:08;;;;;;;0.60;0.60;;;;;;;;;;1850112;75;26770;-42
2022/07/14 06:51:35;;;;;;;3.17;0.60;;;;;;;;;;1858688;75;26619;-41
2022/07/14 06:54:02;;;;;;;3.75;0.70;;;;;;;;;;1858520;75;26772;-46
2022/07/14 06:56:29;;;;;;;1.87;0.75;;;;;;;;;;1874882;75;26315;-42
2022/07/14 06:58:57;;;;;;;3.60;0.50;;;;;;;;;;1864163;75;26227;-41
2022/07/14 07:01:24;;;;;;;1.40;0.70;;;;;;;;;;1838520;75;26268;-48
2022/07/14 07:03:52;;;;;;;3.12;0.68;;;;;;;;;;1861836;75;26453;-48
2022/07/14 07:09:04;;;;;;;0.93;0.50;;;;;;;;;;1850484;75;26206;-40
2022/07/14 07:11:31;;;;;;;0.50;0.50;;;;;;;;;;1862235;76;26335;-44
2022/07/14 07:13:59;;;;;;;0.85;0.35;;;;;;;;;;1847545;75;26352;-38
2022/07/14 07:16:26;;;;;;;1.40;0.53;;;;;;;;;;1858359;75;26391;-41
2022/07/14 07:18:53;;;;;;;2.45;0.40;;;;;;;;;;1853557;76;26265;-44
2022/07/14 07:21:20;;;;;;;1.82;0.47;;;;;;;;;;1852006;76;26216;-44
2022/07/14 07:23:48;;;;;;;0.50;0.50;;;;;;;;;;1856112;75;26246;-44
2022/07/14 07:26:16;;;;;;;2.30;0.60;;;;;;;;;;1852582;75;26308;-38
2022/07/14 07:28:44;;;;;;;2.45;0.65;;;;;;;;;;1850116;76;26297;-39
2022/07/14 07:31:11;;;;;;;2.45;0.72;;;;;;;;;;1857143;76;26655;-41
2022/07/14 07:33:38;;;;;;;1.20;0.68;;;;;;;;;;1861307;75;26247;-42
2022/07/14 07:36:06;;;;;;;2.30;0.72;;;;;;;;;;1848884;76;26257;-44
2022/07/14 07:38:33;;;;;;;0.78;0.60;;;;;;;;;;1835333;75;26645;-39
2022/07/14 07:41:03;;;;;;;1.72;0.70;;;;;;;;;;1855615;75;26370;-44
2022/07/14 07:43:30;;;;;;;0.50;0.50;;;;;;;;;;1854911;76;26260;-42
2022/07/14 07:45:58;;;;;;;0.40;0.40;;;;;;;;;;1863708;76;26348;-42
2022/07/14 07:48:25;;;;;;;0.68;0.68;;;;;;;;;;1864103;75;26367;-48
2022/07/14 07:50:52;;;;;;;0.40;0.40;;;;;;;;;;1849916;76;26695;-53
2022/07/14 07:53:20;;;;;;;1.35;0.45;;;;;;;;;;1866392;76;26678;-41
2022/07/14 07:55:47;;;;;;;1.27;0.60;;;;;;;;;;1860818;76;26750;-41
2022/07/14 07:58:14;;;;;;;0.57;0.57;;;;;;;;;;1859416;75;26356;-39
2022/07/14 08:00:42;;;;;;;0.53;0.53;;;;;;;;;;1857737;76;26264;-40
2022/07/14 08:03:10;;;;;;;0.50;0.50;;;;;;;;;;1855881;76;26255;-49
2022/07/14 08:05:37;;;;;;;0.60;0.60;;;;;;;;;;1857470;76;26216;-45
2022/07/14 08:08:07;;;;;;;0.45;0.45;;;;;;;;;;1866490;75;26279;-44
2022/07/14 08:10:33;;;;;;;1.60;0.42;;;;;;;;;;1849975;76;26273;-40
2022/07/14 08:13:01;;;;;;;0.37;0.37;;;;;;;;;;1863779;75;26304;-39
2022/07/14 08:15:28;;;;;;;0.47;0.47;;;;;;;;;;1853040;76;26224;-38
2022/07/14 08:17:55;;;;;;;1.60;0.47;;;;;;;;;;1851672;75;26280;-42
2022/07/14 08:20:23;;;;;;;0.30;0.30;;;;;;;;;;1865843;76;26218;-45
2022/07/14 08:22:51;;;;;;;0.65;0.60;;;;;;;;;;1865123;76;26754;-39
2022/07/14 08:25:18;;;;;;;1.12;0.60;;;;;;;;;;1865133;75;26332;-39
2022/07/14 08:27:46;;;;;;;1.45;0.40;;;;;;;;;;1870499;76;26191;-38
2022/07/14 08:30:13;;;;;;;0.30;0.30;;;;;;;;;;1864549;76;26302;-38
2022/07/14 08:32:41;;;;;;;0.20;0.20;;;;;;;;;;1856687;76;26254;-44
2022/07/14 08:35:10;;;;;;;0.37;0.37;;;;;;;;;;1868683;76;26785;-48
2022/07/14 08:37:37;;;;;;;0.85;0.40;;;;;;;;;;1864084;75;26647;-40
2022/07/14 08:40:06;;;;;;;0.40;0.40;;;;;;;;;;1857167;75;26263;-42
2022/07/14 08:42:33;;;;;;;0.40;0.40;;;;;;;;;;1859229;76;26674;-43
2022/07/14 08:45:02;;;;;;;0.30;0.30;;;;;;;;;;1854008;75;26370;-41
2022/07/14 08:47:29;;;;;;;0.30;0.30;;;;;;;;;;1866228;75;26370;-44
2022/07/14 08:49:57;;;;;;;0.30;0.30;;;;;;;;;;1860145;75;26673;-39
2022/07/14 08:52:25;;;;;;;1.20;0.50;;;;;;;;;;1855752;76;26301;-50
2022/07/14 08:54:52;;;;;;;0.62;0.42;;;;;;;;;;1862690;75;26243;-41
2022/07/14 08:57:19;;;;;;;0.40;0.40;;;;;;;;;;1862200;76;26267;-47
2022/07/14 08:59:48;;;;;;;0.40;0.40;;;;;;;;;;1862061;75;26254;-43
2022/07/14 09:02:15;;;;;;;0.40;0.40;;;;;;;;;;1858659;75;26323;-38
2022/07/14 09:04:46;;;;;;;0.50;0.50;;;;;;;;;;1857791;75;26383;-42
2022/07/14 09:07:15;;;;;;;0.37;0.37;;;;;;;;;;1856462;76;26677;-39
2022/07/14 09:09:43;;;;;;;0.40;0.40;;;;;;;;;;1839681;77;26779;-42
2022/07/14 09:12:10;;;;;;;0.53;0.40;;;;;;;;;;1859075;75;26701;-38
2022/07/14 09:17:29;;;;;;;0.30;0.30;;;;;;;;;;1843091;75;26194;-41
2022/07/14 09:20:10;;;;;;;0.30;0.30;;;;;;;;;;1862264;75;26275;-42
2022/07/14 09:22:39;;;;;;;2.12;0.20;;;;;;;;;;1866388;76;26260;-39
2022/07/14 09:25:11;;;;;;;0.50;0.37;;;;;;;;;;1870750;75;26309;-39
2022/07/14 09:27:39;;;;;;;0.30;0.30;;;;;;;;;;1876740;75;26823;-40
2022/07/14 09:30:06;;;;;;;0.30;0.30;;;;;;;;;;1841457;75;26293;-41
2022/07/14 09:32:44;;;;;;;0.28;0.28;;;;;;;;;;1850279;76;26263;-46
2022/07/14 09:35:12;;;;;;;0.30;0.30;;;;;;;;;;1856112;75;26219;-40
2022/07/14 09:37:40;;;;;;;0.30;0.30;;;;;;;;;;1859841;75;26215;-39
2022/07/14 09:40:09;;;;;;;0.40;0.40;;;;;;;;;;1870400;75;26231;-40
2022/07/14 09:42:55;;;;;;;0.30;0.30;;;;;;;;;;1866201;76;26243;-43
2022/07/14 09:45:24;;;;;;;0.28;0.28;;;;;;;;;;1854177;76;26260;-43
2022/07/14 09:47:52;;;;;;;0.40;0.40;;;;;;;;;;1861584;75;26321;-39
2022/07/14 09:50:36;;;;;;;0.25;0.25;;;;;;;;;;1847585;75;26254;-43
2022/07/14 09:53:13;;;;;;;0.30;0.30;;;;;;;;;;1855141;75;26810;-40
2022/07/14 09:55:52;;;;;;;0.25;0.25;;;;;;;;;;1865412;75;26255;-43
2022/07/14 09:58:23;;;;;;;0.30;0.30;;;;;;;;;;1863913;75;26266;-39
2022/07/14 10:01:01;;;;;;;0.30;0.30;;;;;;;;;;1864830;75;26258;-38
2022/07/14 10:03:28;;;;;;;0.47;0.40;;;;;;;;;;1848288;75;26187;-42
2022/07/14 10:05:57;;;;;;;0.30;0.30;;;;;;;;;;1870318;75;26671;-39
2022/07/14 10:08:26;;;;;;;0.25;0.25;;;;;;;;;;1857190;75;26682;-47
2022/07/14 10:10:54;;;;;;;0.40;0.40;;;;;;;;;;1848143;75;26375;-44
2022/07/14 10:13:21;;;;;;;0.20;0.20;;;;;;;;;;1862714;75;26269;-39
2022/07/14 10:15:50;;;;;;;0.30;0.30;;;;;;;;;;1868140;75;26686;-39
2022/07/14 10:18:18;;;;;;;0.40;0.40;;;;;;;;;;1842563;77;27117;-42
2022/07/14 10:20:46;;;;;;;0.50;0.40;;;;;;;;;;1852763;75;26202;-39
2022/07/14 10:23:14;;;;;;;0.30;0.23;;;;;;;;;;1868121;75;26228;-41
2022/07/14 10:25:41;;;;;;;0.28;0.28;;;;;;;;;;1869395;75;26332;-40
2022/07/14 10:28:08;;;;;;;0.25;0.25;;;;;;;;;;1870229;75;26352;-39
2022/07/14 10:30:40;;;;;;;0.37;0.37;;;;;;;;;;1839129;76;26295;-44
2022/07/14 10:33:09;;;;;;;0.20;0.20;;;;;;;;;;1841686;75;25968;-39
2022/07/14 10:35:47;;;;;;;0.30;0.30;;;;;;;;;;1859801;75;26658;-45
2022/07/14 10:38:32;;;;;;;0.20;0.20;;;;;;;;;;1849660;75;26238;-40
2022/07/14 10:41:17;;;;;;;0.33;0.33;;;;;;;;;;1862123;75;26347;-39
2022/07/14 10:44:02;;;;;;;0.20;0.20;;;;;;;;;;1870019;75;26276;-39
2022/07/14 10:46:40;;;;;;;0.20;0.20;;;;;;;;;;1865245;75;26235;-39
2022/07/14 10:49:08;;;;;;;0.30;0.30;;;;;;;;;;1865045;77;26260;-39
2022/07/14 10:51:49;;;;;;;0.30;0.30;;;;;;;;;;1836337;75;26253;-39
2022/07/14 10:54:26;;;;;;;0.20;0.20;;;;;;;;;;1837293;75;26260;-39
2022/07/14 10:56:55;;;;;;;0.30;0.30;;;;;;;;;;1850811;75;26377;-39
2022/07/14 10:59:27;;;;;;;0.40;0.40;;;;;;;;;;1834807;75;26248;-42
2022/07/14 11:02:13;;;;;;;0.40;0.40;;;;;;;;;;1845121;75;26301;-40
2022/07/14 11:05:08;;;;;;;0.30;0.30;;;;;;;;;;1869238;75;26678;-41
2022/07/14 11:07:38;;;;;;;0.20;0.20;;;;;;;;;;1834346;77;26682;-39
2022/07/14 11:10:07;;;;;;;0.30;0.30;;;;;;;;;;1826428;76;26297;-41
2022/07/14 11:12:34;;;;;;;0.30;0.30;;;;;;;;;;1800549;78;26335;-42
2022/07/14 11:15:01;;;;;;;1.40;0.23;;;;;;;;;;1858635;75;26789;-41
2022/07/14 11:17:37;;;;;;;0.35;0.30;;;;;;;;;;1850868;76;26319;-48
2022/07/14 11:20:07;;;;;;;0.20;0.20;;;;;;;;;;1863644;75;26247;-44
2022/07/14 11:22:34;;;;;;;0.30;0.30;;;;;;;;;;1858407;76;26345;-48
2022/07/14 11:25:03;;;;;;;0.20;0.20;;;;;;;;;;1852724;77;26357;-41
2022/07/14 11:27:35;;;;;;;0.30;0.30;;;;;;;;;;1829799;76;26253;-43
2022/07/14 11:30:20;;;;;;;0.20;0.20;;;;;;;;;;1838617;75;26257;-45
2022/07/14 11:32:49;;;;;;;0.23;0.23;;;;;;;;;;1850885;75;26254;-48
2022/07/14 11:38:23;;;;;;;0.47;0.47;;;;;;;;;;1860814;75;26732;-41
2022/07/14 11:40:52;;;;;;;0.40;0.40;;;;;;;;;;1837944;75;26277;-48
2022/07/14 11:43:30;;;;;;;0.30;0.30;;;;;;;;;;1851967;75;26221;-43
2022/07/14 11:45:58;;;;;;;0.30;0.30;;;;;;;;;;1854506;75;26282;-46
2022/07/14 11:48:29;;;;;;;0.30;0.30;;;;;;;;;;1839369;75;26225;-43
2022/07/14 11:51:03;;;;;;;0.35;0.30;;;;;;;;;;1839126;75;26182;-43
2022/07/14 11:53:31;;;;;;;0.40;0.40;;;;;;;;;;1837331;77;26225;-42
2022/07/14 11:55:59;;;;;;;0.40;0.40;;;;;;;;;;1853147;75;26223;-43
2022/07/14 11:58:27;;;;;;;0.30;0.30;;;;;;;;;;1867570;75;26664;-43
2022/07/14 12:00:55;;;;;;;0.30;0.30;;;;;;;;;;1856110;77;26708;-43
2022/07/14 12:03:23;;;;;;;0.20;0.20;;;;;;;;;;1839593;77;26229;-41
2022/07/14 12:05:52;;;;;;;0.28;0.28;;;;;;;;;;1851503;75;26255;-39
2022/07/14 12:08:26;;;;;;;0.30;0.30;;;;;;;;;;1856875;75;26282;-44
2022/07/14 12:10:54;;;;;;;0.28;0.28;;;;;;;;;;1835284;75;26304;-41
2022/07/14 12:13:21;;;;;;;0.30;0.30;;;;;;;;;;1844740;75;26303;-39
2022/07/14 12:15:49;;;;;;;0.33;0.33;;;;;;;;;;1846210;75;26260;-41
2022/07/14 12:18:16;;;;;;;0.30;0.30;;;;;;;;;;1851531;75;26236;-39
2022/07/14 12:20:45;;;;;;;0.20;0.20;;;;;;;;;;1872750;75;26208;-40
2022/07/14 12:23:13;;;;;;;0.50;0.50;;;;;;;;;;1856901;75;26272;-45
2022/07/14 12:25:42;;;;;;;0.20;0.20;;;;;;;;;;1842202;76;26221;-43
2022/07/14 12:28:14;;;;;;;0.40;0.40;;;;;;;;;;1838350;75;26255;-41
2022/07/14 12:30:46;;;;;;;0.70;0.50;;;;;;;;;;1823899;76;26740;-42
2022/07/14 12:33:14;;;;;;;0.55;0.55;;;;;;;;;;1835269;75;26336;-39
2022/07/14 12:35:42;;;;;;;0.35;0.35;;;;;;;;;;1843116;75;26247;-52
2022/07/14 12:38:11;;;;;;;0.42;0.42;;;;;;;;;;1871936;75;26204;-39
2022/07/14 12:40:39;;;;;;;0.35;0.35;;;;;;;;;;1853276;75;26190;-44
2022/07/14 12:43:08;;;;;;;0.40;0.40;;;;;;;;;;1859131;75;26808;-39
2022/07/14 12:45:53;;;;;;;0.40;0.40;;;;;;;;;;1844398;76;26914;-41
2022/07/14 12:48:21;;;;;;;0.82;0.28;;;;;;;;;;1839423;75;26387;-39
2022/07/14 12:50:48;;;;;;;0.40;0.40;;;;;;;;;;1862336;75;26355;-39
2022/07/14 12:53:17;;;;;;;0.40;0.40;;;;;;;;;;1852667;75;26156;-39
2022/07/14 12:55:45;;;;;;;0.30;0.30;;;;;;;;;;1851542;76;26245;-39
2022/07/14 12:58:13;;;;;;;0.30;0.30;;;;;;;;;;1849407;75;26281;-42
2022/07/14 13:00:43;;;;;;;0.30;0.30;;;;;;;;;;1837317;75;26253;-46
2022/07/14 13:03:14;;;;;;;0.33;0.33;;;;;;;;;;1834868;75;26193;-44
2022/07/14 13:05:49;;;;;;;0.30;0.30;;;;;;;;;;1861467;76;26679;-40
2022/07/14 13:08:29;;;;;;;0.33;0.33;;;;;;;;;;1855291;75;26347;-41
2022/07/14 13:10:57;;;;;;;0.30;0.30;;;;;;;;;;1831235;75;26313;-39
2022/07/14 13:13:32;;;;;;;0.30;0.30;;;;;;;;;;1850971;75;26259;-41
2022/07/14 13:16:19;;;;;;;0.30;0.30;;;;;;;;;;1835606;75;26256;-45
2022/07/14 13:19:02;;;;;;;0.37;0.37;;;;;;;;;;1845624;75;26300;-43
2022/07/14 13:21:46;;;;;;;0.40;0.40;;;;;;;;;;1877949;75;26270;-44
2022/07/14 13:24:14;;;;;;;0.20;0.20;;;;;;;;;;1885586;75;26393;-38
2022/07/14 13:26:42;;;;;;;0.40;0.40;;;;;;;;;;1851123;75;26622;-40
2022/07/14 13:29:09;;;;;;;0.30;0.30;;;;;;;;;;1844067;76;26265;-40
2022/07/14 13:31:36;;;;;;;0.23;0.23;;;;;;;;;;1871034;76;26727;-40
2022/07/14 13:34:04;;;;;;;0.40;0.40;;;;;;;;;;1851244;76;26758;-39
2022/07/14 13:36:31;;;;;;;0.30;0.30;;;;;;;;;;1838716;76;26309;-45
2022/07/14 13:38:59;;;;;;;0.40;0.40;;;;;;;;;;1860050;75;26385;-43
2022/07/14 13:41:26;;;;;;;0.23;0.23;;;;;;;;;;1861633;75;26277;-41
2022/07/14 13:43:57;;;;;;;0.30;0.30;;;;;;;;;;1855931;75;26265;-43
2022/07/14 13:46:22;;;;;;;0.20;0.20;;;;;;;;;;1826366;75;26261;-39
2022/07/14 13:48:50;;;;;;;0.20;0.20;;;;;;;;;;1836421;75;26340;-42
2022/07/14 13:54:02;;;;;;;0.20;0.20;;;;;;;;;;1868949;75;26291;-39
2022/07/14 13:56:29;;;;;;;0.37;0.20;;;;;;;;;;1856745;75;26337;-53
2022/07/14 13:58:57;;;;;;;0.30;0.30;;;;;;;;;;1862154;76;26251;-42
2022/07/14 14:01:25;;;;;;;0.20;0.20;;;;;;;;;;1831100;75;26255;-41
2022/07/14 14:03:52;;;;;;;0.20;0.20;;;;;;;;;;1835232;76;26257;-45
2022/07/14 14:06:20;;;;;;;0.30;0.30;;;;;;;;;;1852310;75;26261;-50
2022/07/14 14:08:47;;;;;;;0.20;0.20;;;;;;;;;;1859525;75;26285;-39
2022/07/14 14:11:14;;;;;;;0.15;0.15;;;;;;;;;;1852909;75;26194;-46
2022/07/14 14:13:41;;;;;;;0.30;0.30;;;;;;;;;;1851907;75;26273;-49
2022/07/14 14:16:09;;;;;;;0.37;0.35;;;;;;;;;;1843799;75;26311;-42
2022/07/14 14:18:37;;;;;;;0.45;0.20;;;;;;;;;;1838278;75;26682;-42
2022/07/14 14:21:06;;;;;;;0.30;0.30;;;;;;;;;;1856416;77;26296;-43
2022/07/14 14:23:33;;;;;;;0.33;0.33;;;;;;;;;;1871830;75;26300;-40
2022/07/14 14:26:02;;;;;;;0.20;0.20;;;;;;;;;;1858812;76;26682;-39
2022/07/14 14:28:29;;;;;;;0.30;0.30;;;;;;;;;;1865190;75;26329;-40
2022/07/14 14:30:57;;;;;;;0.40;0.40;;;;;;;;;;1856832;76;26640;-40
2022/07/14 14:33:24;;;;;;;0.30;0.30;;;;;;;;;;1842129;75;26335;-45
2022/07/14 14:35:51;;;;;;;0.30;0.30;;;;;;;;;;1844107;75;26616;-41
2022/07/14 14:38:19;;;;;;;0.23;0.23;;;;;;;;;;1860662;74;26777;-39
2022/07/14 14:40:46;;;;;;;0.40;0.40;;;;;;;;;;1870518;76;27121;-48
2022/07/14 14:43:13;;;;;;;0.35;0.35;;;;;;;;;;1870456;75;26651;-48
2022/07/14 14:45:41;;;;;;;0.30;0.30;;;;;;;;;;1868363;76;26279;-42
2022/07/14 14:48:08;;;;;;;0.40;0.40;;;;;;;;;;1848273;75;26745;-39
2022/07/14 14:50:36;;;;;;;0.30;0.30;;;;;;;;;;1853886;76;26311;-39
2022/07/14 14:53:04;;;;;;;0.30;0.30;;;;;;;;;;1852919;75;26762;-45
2022/07/14 14:55:32;;;;;;;0.30;0.30;;;;;;;;;;1867913;75;26273;-41
2022/07/14 14:57:59;;;;;;;0.20;0.20;;;;;;;;;;1850986;75;26687;-43
2022/07/14 15:00:27;;;;;;;0.42;0.33;;;;;;;;;;1855431;75;26253;-50
2022/07/14 15:02:54;;;;;;;0.20;0.20;;;;;;;;;;1858341;75;26213;-40
2022/07/14 15:05:21;;;;;;;0.30;0.30;;;;;;;;;;1864906;75;27065;-40
2022/07/14 15:07:49;;;;;;;0.28;0.28;;;;;;;;;;1853705;75;26696;-40